Bel Aire, Kansas
Current Conditions -  °F | °C
As of 3:54 PM on Monday 22 Dec 2014 (Local Time) from KAAO Reporting Station
Clear Clear  
Wind Chill: 51°   Ceiling: Unl
Heat Index: 51°   Visibility: 10mi
Dew Point: 35°   Wind: 13mph
Humidity: 54%   Direction: 320°NW
Pressure: 29.55"   Gusts: NA
Location:  37.7646°N, 97.2186°W
Report Text: KAAO 222154Z AUTO 32011KT 10SM CLR 11/02 A2955 RMK AO2 SLP007 T01060017
Loading
Personal Weather Stations






























Interactive Weather Map New forecast layout! Learn more

10-Day Weather Forecast

Advertisements
Track Severe Weather on mobile